Time;durP1;ratioP1;P1;durP2;ratioP2;P2;SDS_P1;SDS_P2;PMS_P1;PMS_P2;Temp;Humidity;BMP_temperature;BMP_pressure;BME280_temperature;BME280_humidity;BME280_pressure;Samples;Min_cycle;Max_cycle;Signal;HPM_P1;HPM_P2
2021/09/12 00:00:59;;;;;;;16.13;12.00;;;;;;;;;;732987;189;918709;-70
2021/09/12 00:03:25;;;;;;;20.50;14.10;;;;;;;;;;731316;190;919205;-70
2021/09/12 00:05:51;;;;;;;18.17;14.30;;;;;;;;;;739614;189;918462;-70
2021/09/12 00:08:17;;;;;;;18.33;13.50;;;;;;;;;;732683;189;918392;-71
2021/09/12 00:10:42;;;;;;;15.80;13.02;;;;;;;;;;729896;189;1225583;-70
2021/09/12 00:13:08;;;;;;;18.43;14.17;;;;;;;;;;740624;188;920280;-70
2021/09/12 00:15:34;;;;;;;19.80;14.23;;;;;;;;;;730713;189;918988;-70
2021/09/12 00:18:00;;;;;;;18.00;13.50;;;;;;;;;;734518;189;918482;-70
2021/09/12 00:20:26;;;;;;;15.50;13.80;;;;;;;;;;735457;189;918526;-70
2021/09/12 00:22:52;;;;;;;18.40;12.93;;;;;;;;;;742518;189;919235;-70
2021/09/12 00:25:17;;;;;;;20.08;13.75;;;;;;;;;;737589;189;919779;-70
2021/09/12 00:27:43;;;;;;;16.30;12.70;;;;;;;;;;735476;189;924061;-70
2021/09/12 00:30:10;;;;;;;15.33;13.00;;;;;;;;;;738530;189;918650;-70
2021/09/12 00:32:36;;;;;;;15.47;13.70;;;;;;;;;;736515;189;917694;-71
2021/09/12 00:35:01;;;;;;;21.40;13.47;;;;;;;;;;732872;189;920095;-71
2021/09/12 00:37:27;;;;;;;18.80;13.07;;;;;;;;;;740000;189;918859;-70
2021/09/12 00:39:53;;;;;;;16.50;13.97;;;;;;;;;;726078;192;921680;-71
2021/09/12 00:42:19;;;;;;;18.52;12.73;;;;;;;;;;732803;189;1021409;-70
2021/09/12 00:44:45;;;;;;;14.47;11.57;;;;;;;;;;733790;189;919266;-73
2021/09/12 00:47:11;;;;;;;15.23;12.53;;;;;;;;;;733941;187;918289;-72
2021/09/12 00:49:36;;;;;;;20.03;13.33;;;;;;;;;;732141;190;919017;-71
2021/09/12 00:52:03;;;;;;;19.83;14.93;;;;;;;;;;733764;189;922579;-70
2021/09/12 00:54:29;;;;;;;16.30;13.10;;;;;;;;;;736702;189;919059;-70
2021/09/12 00:56:54;;;;;;;18.40;15.67;;;;;;;;;;732470;189;920747;-71
2021/09/12 00:59:20;;;;;;;18.00;15.33;;;;;;;;;;733074;189;918834;-71
2021/09/12 01:01:46;;;;;;;16.80;14.03;;;;;;;;;;735227;190;919035;-71
2021/09/12 01:04:12;;;;;;;16.73;13.90;;;;;;;;;;731944;190;921580;-71
2021/09/12 01:06:38;;;;;;;16.27;13.20;;;;;;;;;;733817;189;916938;-71
2021/09/12 01:09:04;;;;;;;19.00;13.55;;;;;;;;;;736179;189;916267;-70
2021/09/12 01:11:30;;;;;;;18.30;15.17;;;;;;;;;;733587;189;918174;-71
2021/09/12 01:13:56;;;;;;;16.80;14.30;;;;;;;;;;734138;189;919023;-71
2021/09/12 01:16:21;;;;;;;19.10;14.90;;;;;;;;;;735119;189;919281;-70
2021/09/12 01:18:47;;;;;;;20.23;16.33;;;;;;;;;;738520;189;918997;-70
2021/09/12 01:21:13;;;;;;;21.50;15.13;;;;;;;;;;727168;190;918785;-70
2021/09/12 01:23:39;;;;;;;17.97;14.57;;;;;;;;;;734191;188;917769;-70
2021/09/12 01:26:05;;;;;;;30.93;16.77;;;;;;;;;;740885;189;917547;-70
2021/09/12 01:28:31;;;;;;;22.97;15.70;;;;;;;;;;735986;189;916713;-70
2021/09/12 01:30:57;;;;;;;20.07;14.37;;;;;;;;;;735573;189;919102;-71
2021/09/12 01:33:23;;;;;;;23.87;16.10;;;;;;;;;;740091;189;918818;-70
2021/09/12 01:35:48;;;;;;;15.30;13.00;;;;;;;;;;734093;189;920223;-71
2021/09/12 01:38:14;;;;;;;20.43;15.10;;;;;;;;;;734915;189;920902;-71
2021/09/12 01:40:40;;;;;;;17.50;13.90;;;;;;;;;;733664;189;920029;-71
2021/09/12 01:43:06;;;;;;;25.03;14.17;;;;;;;;;;737779;189;919843;-70
2021/09/12 01:45:32;;;;;;;17.10;14.27;;;;;;;;;;735249;189;919073;-70
2021/09/12 01:48:00;;;;;;;16.70;13.93;;;;;;;;;;730994;189;920608;-70
2021/09/12 01:50:25;;;;;;;19.27;13.97;;;;;;;;;;737799;189;919729;-70
2021/09/12 01:52:51;;;;;;;18.00;14.17;;;;;;;;;;736274;189;918943;-71
2021/09/12 01:55:17;;;;;;;18.25;14.23;;;;;;;;;;736278;189;919268;-71
2021/09/12 01:57:43;;;;;;;18.53;13.90;;;;;;;;;;739690;189;915408;-71
2021/09/12 02:00:09;;;;;;;21.23;14.37;;;;;;;;;;732496;189;916213;-71
2021/09/12 02:02:35;;;;;;;15.70;12.30;;;;;;;;;;733054;189;914763;-71
2021/09/12 02:05:00;;;;;;;16.57;12.97;;;;;;;;;;735964;189;913092;-71
2021/09/12 02:07:26;;;;;;;15.83;12.07;;;;;;;;;;734869;189;915948;-71
2021/09/12 02:09:52;;;;;;;20.37;16.63;;;;;;;;;;735685;189;915090;-71
2021/09/12 02:12:18;;;;;;;18.20;13.30;;;;;;;;;;735435;189;918624;-71
2021/09/12 02:14:44;;;;;;;19.07;14.67;;;;;;;;;;741309;189;918615;-71
2021/09/12 02:17:10;;;;;;;15.80;12.13;;;;;;;;;;736257;189;919427;-71
2021/09/12 02:19:35;;;;;;;16.00;14.17;;;;;;;;;;736266;189;919020;-71
2021/09/12 02:22:01;;;;;;;19.97;14.10;;;;;;;;;;740323;189;917963;-72
2021/09/12 02:24:27;;;;;;;20.40;14.03;;;;;;;;;;733813;189;919199;-71
2021/09/12 02:26:53;;;;;;;17.43;14.03;;;;;;;;;;732425;189;916646;-71
2021/09/12 02:29:19;;;;;;;15.13;12.77;;;;;;;;;;730254;189;915795;-70
2021/09/12 02:31:45;;;;;;;18.40;14.10;;;;;;;;;;728062;187;916072;-71
2021/09/12 02:34:11;;;;;;;17.13;14.00;;;;;;;;;;731716;189;915711;-71
2021/09/12 02:36:36;;;;;;;21.67;15.17;;;;;;;;;;733148;188;915364;-71
2021/09/12 02:39:02;;;;;;;20.07;14.07;;;;;;;;;;738530;189;916652;-71
2021/09/12 02:41:28;;;;;;;21.33;16.07;;;;;;;;;;733735;189;917522;-71
2021/09/12 02:43:54;;;;;;;15.87;13.07;;;;;;;;;;733346;189;1016364;-71
2021/09/12 02:46:20;;;;;;;20.37;15.40;;;;;;;;;;739491;189;938753;-71
2021/09/12 02:48:46;;;;;;;24.67;14.87;;;;;;;;;;733856;189;915085;-71
2021/09/12 02:51:11;;;;;;;20.12;14.82;;;;;;;;;;733340;189;919189;-71
2021/09/12 02:53:38;;;;;;;18.77;16.25;;;;;;;;;;738775;189;918803;-70
2021/09/12 02:56:04;;;;;;;18.00;15.73;;;;;;;;;;731924;189;918308;-72
2021/09/12 02:58:30;;;;;;;20.80;14.90;;;;;;;;;;723766;193;918973;-72
2021/09/12 03:00:56;;;;;;;19.27;14.70;;;;;;;;;;728565;189;923674;-71
2021/09/12 03:03:21;;;;;;;22.80;15.40;;;;;;;;;;740941;189;919064;-71
2021/09/12 03:05:47;;;;;;;18.02;14.07;;;;;;;;;;734690;189;930737;-71
2021/09/12 03:08:13;;;;;;;15.27;13.33;;;;;;;;;;734426;189;1021739;-71
2021/09/12 03:10:39;;;;;;;21.83;15.60;;;;;;;;;;739294;189;919063;-71
2021/09/12 03:13:05;;;;;;;17.05;13.88;;;;;;;;;;733592;189;919572;-72
2021/09/12 03:15:31;;;;;;;17.17;14.67;;;;;;;;;;734055;189;1029666;-72
2021/09/12 03:17:56;;;;;;;17.63;15.87;;;;;;;;;;736084;190;918950;-72
2021/09/12 03:20:22;;;;;;;15.73;13.13;;;;;;;;;;733454;189;918965;-72
2021/09/12 03:22:49;;;;;;;18.33;14.47;;;;;;;;;;734730;189;919141;-72
2021/09/12 03:25:15;;;;;;;16.00;14.27;;;;;;;;;;734924;190;918681;-72
2021/09/12 03:27:40;;;;;;;17.00;14.93;;;;;;;;;;738590;190;919018;-71
2021/09/12 03:30:07;;;;;;;22.57;15.37;;;;;;;;;;733336;189;919001;-72
2021/09/12 03:32:32;;;;;;;18.27;15.95;;;;;;;;;;732767;189;919357;-72
2021/09/12 03:34:58;;;;;;;27.57;15.10;;;;;;;;;;738631;189;919033;-71
2021/09/12 03:37:24;;;;;;;21.00;14.97;;;;;;;;;;735152;189;918664;-71
2021/09/12 03:39:50;;;;;;;17.13;14.73;;;;;;;;;;730240;189;918976;-72
2021/09/12 03:42:16;;;;;;;17.02;15.07;;;;;;;;;;735815;189;918249;-72
2021/09/12 03:44:42;;;;;;;18.20;15.07;;;;;;;;;;735220;189;919039;-72
2021/09/12 03:47:07;;;;;;;17.97;14.50;;;;;;;;;;739466;189;871031;-72
2021/09/12 03:49:33;;;;;;;17.53;14.23;;;;;;;;;;736098;189;919237;-72
2021/09/12 03:51:59;;;;;;;17.60;14.83;;;;;;;;;;730954;190;925252;-72
2021/09/12 03:54:25;;;;;;;18.13;14.50;;;;;;;;;;734310;189;919288;-71
2021/09/12 03:56:51;;;;;;;20.20;16.30;;;;;;;;;;733785;189;918421;-72
2021/09/12 03:59:17;;;;;;;20.73;14.50;;;;;;;;;;739001;189;919326;-71
2021/09/12 04:01:43;;;;;;;19.27;15.60;;;;;;;;;;734580;189;918840;-72
2021/09/12 04:04:08;;;;;;;19.47;13.93;;;;;;;;;;733943;189;919342;-72
2021/09/12 04:06:34;;;;;;;22.67;15.70;;;;;;;;;;738865;189;917822;-72
2021/09/12 04:09:00;;;;;;;14.73;13.20;;;;;;;;;;733659;189;918821;-72
2021/09/12 04:11:26;;;;;;;19.03;14.70;;;;;;;;;;736937;189;920121;-72
2021/09/12 04:13:52;;;;;;;18.60;15.00;;;;;;;;;;737218;189;921572;-71
2021/09/12 04:16:18;;;;;;;17.80;14.70;;;;;;;;;;726925;192;915301;-72
2021/09/12 04:18:44;;;;;;;19.00;14.20;;;;;;;;;;731521;189;916969;-72
2021/09/12 04:21:10;;;;;;;16.00;13.53;;;;;;;;;;735554;189;925587;-72
2021/09/12 04:23:36;;;;;;;18.30;15.30;;;;;;;;;;738178;189;1018639;-73
2021/09/12 04:26:03;;;;;;;17.00;14.80;;;;;;;;;;732691;189;918566;-72
2021/09/12 04:28:28;;;;;;;19.35;14.10;;;;;;;;;;733992;189;918424;-72
2021/09/12 04:30:55;;;;;;;18.77;15.10;;;;;;;;;;737719;189;919217;-71
2021/09/12 04:33:19;;;;;;;16.97;15.17;;;;;;;;;;733849;189;918273;-72
2021/09/12 04:35:45;;;;;;;20.90;14.70;;;;;;;;;;735249;189;918434;-72
2021/09/12 04:38:11;;;;;;;18.90;14.00;;;;;;;;;;739554;189;917312;-72
2021/09/12 04:40:37;;;;;;;16.67;13.50;;;;;;;;;;735805;189;918923;-73
2021/09/12 04:43:03;;;;;;;20.23;14.30;;;;;;;;;;736458;189;918939;-73
2021/09/12 04:45:29;;;;;;;17.33;15.20;;;;;;;;;;734224;189;1011420;-72
2021/09/12 04:47:54;;;;;;;17.90;14.40;;;;;;;;;;739647;189;918158;-73
2021/09/12 04:50:20;;;;;;;19.60;13.87;;;;;;;;;;739282;189;627562;-73
2021/09/12 04:52:47;;;;;;;16.27;14.30;;;;;;;;;;739222;189;626798;-72
2021/09/12 04:55:12;;;;;;;16.53;14.33;;;;;;;;;;744752;189;624661;-73
2021/09/12 04:57:38;;;;;;;19.50;15.20;;;;;;;;;;740287;188;634214;-73
2021/09/12 05:00:04;;;;;;;15.90;13.80;;;;;;;;;;733952;188;981281;-72
2021/09/12 05:02:30;;;;;;;20.43;16.40;;;;;;;;;;738707;189;919588;-72
2021/09/12 05:04:56;;;;;;;19.27;15.80;;;;;;;;;;736118;189;1017038;-72
2021/09/12 05:07:22;;;;;;;20.17;16.37;;;;;;;;;;735347;189;919957;-72
2021/09/12 05:09:47;;;;;;;22.07;15.90;;;;;;;;;;734621;189;913923;-72
2021/09/12 05:12:13;;;;;;;17.30;14.77;;;;;;;;;;729678;190;918787;-72
2021/09/12 05:14:39;;;;;;;23.63;17.20;;;;;;;;;;733858;189;919074;-73
2021/09/12 05:17:05;;;;;;;27.97;17.80;;;;;;;;;;735169;189;918679;-72
2021/09/12 05:19:31;;;;;;;23.50;17.63;;;;;;;;;;739506;189;917032;-73
2021/09/12 05:21:57;;;;;;;20.27;16.07;;;;;;;;;;735197;189;918225;-73
2021/09/12 05:24:23;;;;;;;21.37;17.77;;;;;;;;;;734882;189;918988;-73
2021/09/12 05:26:48;;;;;;;20.07;16.50;;;;;;;;;;739758;189;919557;-73
2021/09/12 05:29:15;;;;;;;20.70;15.70;;;;;;;;;;734147;189;919770;-76
2021/09/12 05:31:40;;;;;;;19.67;16.25;;;;;;;;;;733882;189;918614;-74
2021/09/12 05:34:06;;;;;;;25.75;17.25;;;;;;;;;;734704;189;921066;-72
2021/09/12 05:36:32;;;;;;;18.00;14.53;;;;;;;;;;729686;191;919005;-74
2021/09/12 05:38:58;;;;;;;18.33;15.40;;;;;;;;;;734087;189;918483;-74
2021/09/12 05:41:24;;;;;;;20.30;15.47;;;;;;;;;;732022;189;951518;-75
2021/09/12 05:43:50;;;;;;;19.53;15.20;;;;;;;;;;737815;189;918713;-72
2021/09/12 05:46:16;;;;;;;23.30;15.30;;;;;;;;;;733171;189;918994;-74
2021/09/12 05:48:42;;;;;;;16.50;14.40;;;;;;;;;;733638;189;918280;-74
2021/09/12 05:51:07;;;;;;;18.50;14.80;;;;;;;;;;737939;189;918330;-74
2021/09/12 05:53:33;;;;;;;20.40;14.60;;;;;;;;;;734230;189;918523;-74
2021/09/12 05:55:59;;;;;;;18.00;14.80;;;;;;;;;;733279;189;919753;-74
2021/09/12 05:58:25;;;;;;;15.10;13.27;;;;;;;;;;735839;189;1028756;-75
2021/09/12 06:00:51;;;;;;;15.50;13.43;;;;;;;;;;735579;189;918905;-75
2021/09/12 06:03:17;;;;;;;16.43;14.40;;;;;;;;;;737317;189;918016;-74
2021/09/12 06:05:43;;;;;;;17.70;13.82;;;;;;;;;;732834;189;919009;-74
2021/09/12 06:08:08;;;;;;;22.47;15.40;;;;;;;;;;739250;189;918681;-75
2021/09/12 06:10:34;;;;;;;15.10;13.00;;;;;;;;;;733538;188;1021359;-74
2021/09/12 06:13:01;;;;;;;17.30;13.73;;;;;;;;;;733751;189;919344;-74
2021/09/12 06:15:27;;;;;;;17.03;13.80;;;;;;;;;;740199;189;918277;-75
2021/09/12 06:17:53;;;;;;;14.63;13.13;;;;;;;;;;735111;189;918567;-74
2021/09/12 06:20:20;;;;;;;15.30;13.50;;;;;;;;;;733905;189;918916;-73
2021/09/12 06:22:49;;;;;;;16.87;13.97;;;;;;;;;;737886;189;918799;-74
2021/09/12 06:25:17;;;;;;;16.83;14.53;;;;;;;;;;732016;192;919303;-75
2021/09/12 06:27:43;;;;;;;17.53;12.33;;;;;;;;;;733820;190;919353;-74
2021/09/12 06:30:09;;;;;;;14.18;12.23;;;;;;;;;;732703;189;918547;-74
2021/09/12 06:32:34;;;;;;;16.00;12.40;;;;;;;;;;738110;189;917854;-74
2021/09/12 06:35:00;;;;;;;15.57;13.70;;;;;;;;;;733006;189;918772;-75
2021/09/12 06:37:26;;;;;;;17.20;13.43;;;;;;;;;;733976;189;919145;-75
2021/09/12 06:39:52;;;;;;;16.47;13.17;;;;;;;;;;738687;189;1123767;-75
2021/09/12 06:42:18;;;;;;;15.77;12.63;;;;;;;;;;734959;189;918729;-73
2021/09/12 06:44:44;;;;;;;15.93;12.50;;;;;;;;;;726788;189;2043624;-74
2021/09/12 06:47:09;;;;;;;14.40;12.83;;;;;;;;;;732954;189;919137;-74
2021/09/12 06:49:35;;;;;;;15.73;13.60;;;;;;;;;;734652;186;917202;-74
2021/09/12 06:52:01;;;;;;;18.37;13.00;;;;;;;;;;733237;190;918232;-74
2021/09/12 06:54:27;;;;;;;17.53;12.63;;;;;;;;;;731347;189;917224;-74
2021/09/12 06:56:53;;;;;;;16.43;13.13;;;;;;;;;;740176;189;918914;-73
2021/09/12 06:59:19;;;;;;;23.90;12.93;;;;;;;;;;734798;189;917274;-74
2021/09/12 07:01:45;;;;;;;15.75;12.65;;;;;;;;;;733451;189;915751;-74
2021/09/12 07:04:10;;;;;;;16.20;13.27;;;;;;;;;;737683;189;916160;-74
2021/09/12 07:06:36;;;;;;;17.27;13.13;;;;;;;;;;732560;190;915912;-75
2021/09/12 07:09:02;;;;;;;13.87;11.97;;;;;;;;;;736895;189;918715;-74
2021/09/12 07:11:29;;;;;;;22.70;12.95;;;;;;;;;;732850;190;918226;-72
2021/09/12 07:13:54;;;;;;;16.53;13.57;;;;;;;;;;734393;186;918020;-74
2021/09/12 07:16:21;;;;;;;16.40;13.60;;;;;;;;;;732673;190;919084;-74
2021/09/12 07:18:48;;;;;;;19.10;12.80;;;;;;;;;;731040;189;917821;-74
2021/09/12 07:21:15;;;;;;;17.53;12.77;;;;;;;;;;737734;189;918547;-75
2021/09/12 07:23:41;;;;;;;19.60;14.43;;;;;;;;;;738541;189;918992;-73
2021/09/12 07:26:08;;;;;;;17.73;12.93;;;;;;;;;;736419;189;919212;-74
2021/09/12 07:28:34;;;;;;;12.43;11.13;;;;;;;;;;740168;189;918228;-74
2021/09/12 07:31:00;;;;;;;14.10;12.23;;;;;;;;;;733772;189;918522;-75
2021/09/12 07:33:26;;;;;;;18.47;11.70;;;;;;;;;;733441;189;919261;-75
2021/09/12 07:35:52;;;;;;;17.27;14.50;;;;;;;;;;733127;189;918599;-75
2021/09/12 07:38:18;;;;;;;20.23;12.63;;;;;;;;;;740740;189;919054;-75
2021/09/12 07:40:44;;;;;;;14.43;12.10;;;;;;;;;;734917;189;918644;-74
2021/09/12 07:43:09;;;;;;;13.77;10.67;;;;;;;;;;735953;189;919466;-75
2021/09/12 07:45:35;;;;;;;12.83;10.70;;;;;;;;;;738466;189;926389;-75
2021/09/12 07:48:01;;;;;;;11.83;10.23;;;;;;;;;;730131;190;919025;-74
2021/09/12 07:50:27;;;;;;;16.37;11.77;;;;;;;;;;736355;189;631866;-74
2021/09/12 07:52:53;;;;;;;15.43;11.87;;;;;;;;;;740030;189;629056;-74
2021/09/12 07:55:19;;;;;;;17.10;10.40;;;;;;;;;;734903;189;918682;-76
2021/09/12 07:57:44;;;;;;;14.75;11.90;;;;;;;;;;735463;189;917110;-75
2021/09/12 08:00:11;;;;;;;12.93;11.10;;;;;;;;;;734545;189;919000;-75
2021/09/12 08:02:36;;;;;;;13.30;10.77;;;;;;;;;;734055;186;918930;-75
2021/09/12 08:05:02;;;;;;;15.77;12.93;;;;;;;;;;723037;193;918863;-75
2021/09/12 08:07:28;;;;;;;18.23;12.30;;;;;;;;;;729670;190;918288;-74
2021/09/12 08:09:54;;;;;;;20.20;12.13;;;;;;;;;;735644;190;919845;-75
2021/09/12 08:12:20;;;;;;;13.57;11.33;;;;;;;;;;734713;189;918692;-76
2021/09/12 08:14:46;;;;;;;19.77;13.30;;;;;;;;;;733866;189;918935;-74
2021/09/12 08:17:12;;;;;;;20.73;14.48;;;;;;;;;;737827;189;919179;-74
2021/09/12 08:19:38;;;;;;;18.50;12.40;;;;;;;;;;735691;189;917598;-76
2021/09/12 08:22:05;;;;;;;17.20;12.33;;;;;;;;;;735275;190;917593;-75
2021/09/12 08:24:32;;;;;;;13.10;11.10;;;;;;;;;;733068;189;920801;-75
2021/09/12 08:26:59;;;;;;;15.80;11.80;;;;;;;;;;725644;192;918731;-76
2021/09/12 08:29:25;;;;;;;15.13;11.60;;;;;;;;;;736199;190;915520;-75
2021/09/12 08:31:52;;;;;;;14.50;13.00;;;;;;;;;;729116;189;917260;-75
2021/09/12 08:34:18;;;;;;;14.67;13.03;;;;;;;;;;739218;189;917031;-75
2021/09/12 08:36:44;;;;;;;18.00;11.13;;;;;;;;;;736042;189;919040;-75
2021/09/12 08:39:10;;;;;;;14.07;12.47;;;;;;;;;;736285;189;922111;-74
2021/09/12 08:41:36;;;;;;;16.33;13.03;;;;;;;;;;738959;189;918061;-75
2021/09/12 08:44:01;;;;;;;13.83;11.77;;;;;;;;;;735702;189;919352;-76
2021/09/12 08:46:27;;;;;;;16.73;13.70;;;;;;;;;;737131;189;919253;-76
2021/09/12 08:48:53;;;;;;;15.40;12.80;;;;;;;;;;735093;189;918834;-75
2021/09/12 08:51:19;;;;;;;15.00;13.50;;;;;;;;;;728440;192;918472;-75
2021/09/12 08:53:45;;;;;;;14.03;11.77;;;;;;;;;;732555;190;935917;-75
2021/09/12 08:56:11;;;;;;;14.17;12.67;;;;;;;;;;731838;190;924726;-76
2021/09/12 08:58:37;;;;;;;16.47;13.10;;;;;;;;;;736132;189;918486;-75
2021/09/12 09:01:02;;;;;;;19.45;13.90;;;;;;;;;;731295;189;918614;-74
2021/09/12 09:03:41;;;;;;;22.40;13.90;;;;;;;;;;733562;189;969276;-76
2021/09/12 09:06:11;;;;;;;18.80;14.80;;;;;;;;;;734056;189;919062;-75
2021/09/12 09:08:36;;;;;;;15.50;13.83;;;;;;;;;;737852;189;919595;-75
2021/09/12 09:11:02;;;;;;;14.20;12.63;;;;;;;;;;727113;193;918874;-76
2021/09/12 09:13:30;;;;;;;17.87;12.47;;;;;;;;;;732972;190;920737;-76
2021/09/12 09:15:55;;;;;;;19.50;14.60;;;;;;;;;;732623;189;919150;-76
2021/09/12 09:18:32;;;;;;;17.73;12.30;;;;;;;;;;728608;193;919162;-75
2021/09/12 09:20:59;;;;;;;15.70;12.67;;;;;;;;;;736968;190;846703;-75
2021/09/12 09:23:25;;;;;;;17.40;13.40;;;;;;;;;;732940;190;918667;-76
2021/09/12 09:25:53;;;;;;;23.57;13.87;;;;;;;;;;732375;189;918413;-74
2021/09/12 09:28:19;;;;;;;19.50;14.07;;;;;;;;;;736885;189;918505;-75
2021/09/12 09:30:49;;;;;;;15.73;12.77;;;;;;;;;;727528;189;919580;-75
2021/09/12 09:33:16;;;;;;;18.30;13.40;;;;;;;;;;734183;189;1020758;-77
2021/09/12 09:35:55;;;;;;;17.90;12.97;;;;;;;;;;740430;189;881453;-77
2021/09/12 09:38:21;;;;;;;17.07;13.03;;;;;;;;;;731835;190;918587;-76
2021/09/12 09:40:53;;;;;;;13.30;11.00;;;;;;;;;;732168;189;1021994;-76
2021/09/12 09:43:19;;;;;;;16.60;12.87;;;;;;;;;;735839;189;918971;-76
2021/09/12 09:45:45;;;;;;;14.30;12.75;;;;;;;;;;738292;188;919091;-76
2021/09/12 09:48:13;;;;;;;16.50;12.40;;;;;;;;;;741733;189;918669;-78
2021/09/12 09:50:38;;;;;;;20.60;15.17;;;;;;;;;;735940;189;918845;-76
2021/09/12 09:53:04;;;;;;;17.67;13.17;;;;;;;;;;734014;189;918943;-76
2021/09/12 09:55:30;;;;;;;20.27;11.80;;;;;;;;;;740446;189;918933;-75
2021/09/12 09:57:56;;;;;;;13.77;12.37;;;;;;;;;;736661;189;919515;-76
2021/09/12 10:00:22;;;;;;;14.87;12.70;;;;;;;;;;736808;189;918562;-78
2021/09/12 10:02:48;;;;;;;16.30;12.00;;;;;;;;;;735068;189;1020405;-75
2021/09/12 10:05:14;;;;;;;18.27;11.67;;;;;;;;;;738127;186;919203;-77
2021/09/12 10:07:39;;;;;;;15.43;11.90;;;;;;;;;;732313;190;1020878;-72
2021/09/12 10:10:06;;;;;;;15.04;11.02;;;;;;;;;;733018;189;1119597;-75
2021/09/12 10:12:31;;;;;;;14.93;11.88;;;;;;;;;;735687;189;918944;-75
2021/09/12 10:14:57;;;;;;;16.37;12.60;;;;;;;;;;734917;189;1021063;-75
2021/09/12 10:17:23;;;;;;;11.93;10.63;;;;;;;;;;732086;189;928133;-74
2021/09/12 10:19:49;;;;;;;12.80;11.18;;;;;;;;;;737680;189;918701;-75
2021/09/12 10:22:16;;;;;;;13.87;12.10;;;;;;;;;;732009;190;1023344;-74
2021/09/12 10:24:48;;;;;;;13.40;11.10;;;;;;;;;;735732;189;918761;-76
2021/09/12 10:27:30;;;;;;;12.60;11.30;;;;;;;;;;733636;189;918670;-75
2021/09/12 10:29:56;;;;;;;14.30;11.23;;;;;;;;;;731154;189;918106;-77
2021/09/12 10:32:28;;;;;;;17.33;11.97;;;;;;;;;;736468;190;920920;-74
2021/09/12 10:34:59;;;;;;;12.20;9.70;;;;;;;;;;731095;189;921320;-75
2021/09/12 10:37:30;;;;;;;11.37;10.20;;;;;;;;;;732827;189;944098;-77
2021/09/12 10:39:57;;;;;;;11.77;10.00;;;;;;;;;;734915;189;916150;-75
2021/09/12 10:42:23;;;;;;;10.60;8.53;;;;;;;;;;742710;189;814216;-76
2021/09/12 10:45:05;;;;;;;11.03;9.37;;;;;;;;;;739071;189;915635;-75
2021/09/12 10:47:30;;;;;;;13.17;10.23;;;;;;;;;;722668;192;919643;-76
2021/09/12 10:49:56;;;;;;;15.30;10.50;;;;;;;;;;732705;189;919055;-75
2021/09/12 10:52:28;;;;;;;15.30;11.88;;;;;;;;;;736398;189;918118;-74
2021/09/12 10:55:00;;;;;;;12.93;9.63;;;;;;;;;;732810;189;1854557;-75
2021/09/12 10:57:26;;;;;;;17.77;14.10;;;;;;;;;;737875;189;920497;-74
2021/09/12 10:59:52;;;;;;;12.23;10.30;;;;;;;;;;738505;189;909618;-76
2021/09/12 11:02:18;;;;;;;12.43;9.70;;;;;;;;;;737774;189;911356;-74
2021/09/12 11:04:44;;;;;;;13.27;10.47;;;;;;;;;;730241;188;911555;-75
2021/09/12 11:07:09;;;;;;;17.60;12.23;;;;;;;;;;731830;189;910292;-75
2021/09/12 11:09:35;;;;;;;12.73;10.93;;;;;;;;;;735435;189;914328;-75
2021/09/12 11:12:01;;;;;;;19.23;11.40;;;;;;;;;;738834;189;910078;-75
2021/09/12 11:14:27;;;;;;;13.20;11.23;;;;;;;;;;736139;189;908477;-75
2021/09/12 11:16:53;;;;;;;15.73;10.90;;;;;;;;;;734846;189;918670;-74
2021/09/12 11:19:19;;;;;;;12.50;8.77;;;;;;;;;;739059;189;918761;-74
2021/09/12 11:21:48;;;;;;;13.70;8.57;;;;;;;;;;735869;189;994803;-75
2021/09/12 11:24:14;;;;;;;10.10;8.40;;;;;;;;;;733098;189;918724;-75
2021/09/12 11:26:49;;;;;;;16.03;9.60;;;;;;;;;;733773;189;919267;-75
2021/09/12 11:29:18;;;;;;;10.40;9.30;;;;;;;;;;739192;189;937497;-76
2021/09/12 11:31:44;;;;;;;13.90;10.27;;;;;;;;;;727484;189;951795;-74
2021/09/12 11:34:09;;;;;;;9.93;8.90;;;;;;;;;;734394;189;918691;-74
2021/09/12 11:36:40;;;;;;;12.20;9.53;;;;;;;;;;733928;189;918428;-75
2021/09/12 11:39:06;;;;;;;11.83;7.97;;;;;;;;;;739885;189;917418;-74
2021/09/12 11:41:32;;;;;;;12.30;10.30;;;;;;;;;;733878;189;919610;-76
2021/09/12 11:43:58;;;;;;;8.88;7.55;;;;;;;;;;734197;189;919106;-75
2021/09/12 11:46:24;;;;;;;9.00;7.75;;;;;;;;;;740351;189;890206;-76
2021/09/12 11:48:55;;;;;;;10.90;7.77;;;;;;;;;;735384;189;919717;-75
2021/09/12 11:51:27;;;;;;;10.60;9.10;;;;;;;;;;727413;189;619897;-76
2021/09/12 11:53:58;;;;;;;13.03;9.40;;;;;;;;;;738291;189;632193;-76
2021/09/12 11:56:24;;;;;;;10.40;9.40;;;;;;;;;;734609;191;630564;-81
2021/09/12 11:58:50;;;;;;;10.60;9.60;;;;;;;;;;735547;190;628436;-77
2021/09/12 12:01:16;;;;;;;10.40;8.57;;;;;;;;;;737693;189;681149;-77
2021/09/12 12:03:42;;;;;;;11.30;8.63;;;;;;;;;;737930;190;625669;-76
2021/09/12 12:06:09;;;;;;;10.17;8.33;;;;;;;;;;740163;190;623297;-76
2021/09/12 12:08:35;;;;;;;12.43;8.90;;;;;;;;;;738024;187;648196;-78
2021/09/12 12:10:59;;;;;;;9.47;8.33;;;;;;;;;;737731;189;627961;-75
2021/09/12 12:13:28;;;;;;;9.90;8.57;;;;;;;;;;740998;189;632433;-76
2021/09/12 12:15:54;;;;;;;11.00;8.70;;;;;;;;;;741168;189;628584;-76
2021/09/12 12:18:20;;;;;;;10.30;9.20;;;;;;;;;;739559;189;627209;-74
2021/09/12 12:20:45;;;;;;;11.07;9.37;;;;;;;;;;739459;189;634892;-77
2021/09/12 12:23:13;;;;;;;11.20;9.90;;;;;;;;;;740694;189;647733;-77
2021/09/12 12:25:39;;;;;;;11.00;9.83;;;;;;;;;;737326;189;635882;-81
2021/09/12 12:28:11;;;;;;;10.53;9.07;;;;;;;;;;738168;189;806775;-77
2021/09/12 12:30:36;;;;;;;9.57;8.57;;;;;;;;;;742475;189;629015;-77
2021/09/12 12:33:02;;;;;;;15.10;8.83;;;;;;;;;;740458;189;634583;-77
2021/09/12 12:35:28;;;;;;;13.60;8.10;;;;;;;;;;736772;189;919158;-83
2021/09/12 12:37:54;;;;;;;11.10;9.67;;;;;;;;;;738088;189;919429;-77
2021/09/12 12:40:20;;;;;;;10.90;8.13;;;;;;;;;;744395;189;616904;-77
2021/09/12 12:42:46;;;;;;;10.87;8.73;;;;;;;;;;738638;189;816622;-77
2021/09/12 12:45:17;;;;;;;9.87;8.87;;;;;;;;;;732079;189;918715;-77
2021/09/12 12:47:42;;;;;;;12.47;9.30;;;;;;;;;;738047;189;918778;-78
2021/09/12 12:50:08;;;;;;;14.17;9.33;;;;;;;;;;736394;190;618791;-74
2021/09/12 12:52:34;;;;;;;9.27;8.27;;;;;;;;;;736251;189;634012;-79
2021/09/12 12:55:00;;;;;;;9.57;7.83;;;;;;;;;;735418;189;712234;-75
2021/09/12 12:57:28;;;;;;;9.57;8.57;;;;;;;;;;734196;189;712904;-76
2021/09/12 12:59:52;;;;;;;12.90;8.53;;;;;;;;;;736473;190;618623;-76
2021/09/12 13:02:18;;;;;;;9.67;8.67;;;;;;;;;;736731;189;618343;-77
2021/09/12 13:04:43;;;;;;;9.10;8.10;;;;;;;;;;738883;189;815356;-77
2021/09/12 13:07:09;;;;;;;9.30;7.80;;;;;;;;;;736029;189;918148;-74
2021/09/12 13:09:35;;;;;;;9.93;7.80;;;;;;;;;;735181;189;1020729;-77
2021/09/12 13:12:01;;;;;;;11.53;8.97;;;;;;;;;;739117;189;918096;-77
2021/09/12 13:14:27;;;;;;;9.87;7.53;;;;;;;;;;738125;189;618663;-75
2021/09/12 13:16:53;;;;;;;8.33;7.50;;;;;;;;;;738940;189;614815;-74
2021/09/12 13:19:18;;;;;;;11.13;8.37;;;;;;;;;;738659;188;621703;-75
2021/09/12 13:21:44;;;;;;;15.27;8.23;;;;;;;;;;730169;190;918263;-77
2021/09/12 13:24:10;;;;;;;9.37;8.00;;;;;;;;;;737846;189;632043;-76
2021/09/12 13:26:36;;;;;;;13.47;9.07;;;;;;;;;;736391;189;1022808;-73
2021/09/12 13:29:02;;;;;;;10.20;8.80;;;;;;;;;;738483;189;617092;-74
2021/09/12 13:31:32;;;;;;;13.10;7.60;;;;;;;;;;735892;189;920164;-74
2021/09/12 13:33:55;;;;;;;11.03;8.63;;;;;;;;;;734327;189;777748;-74
2021/09/12 13:36:19;;;;;;;10.90;8.63;;;;;;;;;;742157;189;627906;-73
2021/09/12 13:38:45;;;;;;;8.27;7.47;;;;;;;;;;738057;189;619055;-76
2021/09/12 13:41:15;;;;;;;9.33;8.37;;;;;;;;;;738864;189;629908;-75
2021/09/12 13:43:37;;;;;;;13.03;8.23;;;;;;;;;;742637;189;619231;-75
2021/09/12 13:46:03;;;;;;;14.97;7.80;;;;;;;;;;739896;189;643619;-74
2021/09/12 13:48:29;;;;;;;9.77;7.30;;;;;;;;;;736260;189;618437;-76
2021/09/12 13:50:54;;;;;;;9.80;8.20;;;;;;;;;;738103;189;631184;-75
2021/09/12 13:53:20;;;;;;;11.00;8.00;;;;;;;;;;739221;189;629567;-74
2021/09/12 13:55:46;;;;;;;8.80;7.90;;;;;;;;;;730713;189;817221;-77
2021/09/12 13:58:12;;;;;;;8.70;7.83;;;;;;;;;;732281;190;621874;-74
2021/09/12 14:00:38;;;;;;;10.20;8.77;;;;;;;;;;738968;189;814312;-75